Clarkrange, Tennessee
Current Conditions -  °F | °C
As of 7:40 AM on Wednesday 22 Oct 2014 (Local Time) from KCSV Reporting Station
Few Clouds Few Clouds  
Wind Chill: 38°   Ceiling: Unl
Heat Index: 43°   Visibility: 10mi
Dew Point: 39°   Wind: 8mph
Humidity: 86%   Direction: 30°NNE
Pressure: 30.19"   Gusts: NA
Location:  36.18°N, 85.02°W
Report Text: KCSV 221240Z AUTO 03007KT 10SM FEW006 06/04 A3019 RMK AO2 T00610039
Loading
Personal Weather Stations






























Interactive Weather Map
Tropical Storm Tracking
New forecast layout! Learn more

10-Day Weather Forecast

Advertisements
Track Severe Weather on mobile